createdAt,value
2018-03-21T00:02:35.024Z,77.38
2018-03-21T00:17:37.952Z,77.33
2018-03-21T00:32:36.331Z,76.84
2018-03-21T00:47:34.822Z,76.53
2018-03-21T01:02:37.142Z,77.74
2018-03-21T01:17:35.166Z,79.15
2018-03-21T01:32:35.030Z,80.90
2018-03-21T01:47:35.130Z,80.92
2018-03-21T02:32:34.330Z,79.91
2018-03-21T02:47:34.271Z,79.71
2018-03-21T03:02:34.646Z,80.05
2018-03-21T04:32:34.897Z,78.71
2018-03-21T04:47:34.763Z,78.42
2018-03-21T05:02:35.120Z,78.25
2018-03-21T05:17:37.118Z,78.21
2018-03-21T05:32:35.045Z,78.40
2018-03-21T05:47:34.905Z,78.66
2018-03-21T06:02:34.366Z,78.75
2018-03-21T06:17:34.291Z,78.78
2018-03-21T06:32:34.179Z,78.55
2018-03-21T06:47:35.154Z,78.41
2018-03-21T07:02:34.632Z,78.35
2018-03-21T07:17:37.533Z,78.80
2018-03-21T07:32:36.531Z,77.69
2018-03-21T07:47:35.696Z,79.35
2018-03-21T08:02:34.754Z,79.32
2018-03-21T08:17:36.758Z,78.69
2018-03-21T08:32:34.626Z,76.76
2018-03-21T08:47:36.148Z,74.62
2018-03-21T09:02:35.083Z,73.50
2018-03-21T09:17:34.984Z,72.78
2018-03-21T09:32:34.879Z,72.85
2018-03-21T09:47:36.948Z,73.96
2018-03-21T10:02:34.248Z,75.37
2018-03-21T10:17:37.258Z,74.83
2018-03-21T10:32:36.140Z,74.02
2018-03-21T10:47:37.108Z,71.56
2018-03-21T11:02:39.876Z,69.16
2018-03-21T11:17:34.350Z,67.72
2018-03-21T11:32:34.293Z,64.71
2018-03-21T11:47:34.307Z,60.95
2018-03-21T12:02:36.686Z,58.16
2018-03-21T12:17:34.629Z,57.63
2018-03-21T12:32:37.325Z,58.83
2018-03-21T12:47:34.518Z,56.69
2018-03-21T13:02:34.405Z,55.87
2018-03-21T13:17:34.782Z,55.31
2018-03-21T13:32:34.758Z,56.56
2018-03-21T13:47:34.758Z,57.64
2018-03-21T14:02:35.133Z,58.74
2018-03-21T14:17:35.115Z,60.06
2018-03-21T14:32:34.946Z,62.47
2018-03-21T14:47:34.982Z,63.22
2018-03-21T15:02:36.269Z,62.43
2018-03-21T15:17:34.808Z,62.62
2018-03-21T16:17:34.468Z,65.90
2018-03-21T16:32:36.440Z,65.19
2018-03-21T16:47:34.436Z,66.08
2018-03-21T17:02:38.966Z,66.10
2018-03-21T17:17:34.839Z,66.28
2018-03-21T17:32:36.163Z,66.15
2018-03-21T17:47:36.716Z,65.93
2018-03-21T18:02:34.992Z,66.65
2018-03-21T18:17:37.024Z,67.97
2018-03-21T18:32:34.391Z,67.62
2018-03-21T18:47:41.835Z,67.42
2018-03-21T19:02:34.285Z,67.69
2018-03-21T19:32:35.170Z,67.33
2018-03-21T19:47:34.234Z,67.40
2018-03-21T20:02:35.100Z,69.15
2018-03-21T20:17:41.525Z,69.50
2018-03-21T20:32:37.814Z,70.84
2018-03-21T20:47:36.422Z,71.00
2018-03-21T21:02:34.756Z,70.31
2018-03-21T21:17:34.801Z,69.68
2018-03-21T21:32:34.631Z,69.08
2018-03-21T21:47:34.614Z,67.80
2018-03-21T22:02:34.084Z,67.24
2018-03-21T22:17:34.960Z,66.52
2018-03-21T22:32:35.001Z,67.39
2018-03-21T22:47:34.898Z,67.81
2018-03-21T23:02:34.228Z,67.49
2018-03-21T23:17:35.188Z,67.89
2018-03-21T23:32:35.177Z,70.03
2018-03-21T23:47:35.170Z,71.28
